Time;durP1;ratioP1;P1;durP2;ratioP2;P2;SDS_P1;SDS_P2;PMS_P1;PMS_P2;Temp;Humidity;BMP_temperature;BMP_pressure;BME280_temperature;BME280_humidity;BME280_pressure;Samples;Min_cycle;Max_cycle;Signal;HPM_P1;HPM_P2
2022/07/23 00:00:18;;;;;;;;;;;;;;;12.83;100.00;99582.84;6126718;23;20237;-90
2022/07/23 00:02:47;;;;;;;;;;;;;;;12.77;100.00;99585.00;6126059;23;19912;-87
2022/07/23 00:05:14;;;;;;;;;;;;;;;12.97;100.00;99594.50;6125811;23;20373;-87
2022/07/23 00:07:39;;;;;;;;;;;;;;;12.92;100.00;99591.25;6127964;23;20217;-87
2022/07/23 00:10:05;;;;;;;;;;;;;;;12.83;100.00;99590.84;6126232;23;19928;-89
2022/07/23 00:12:30;;;;;;;;;;;;;;;13.03;100.00;99584.38;6149963;23;19920;-87
2022/07/23 00:15:04;;;;;;;;;;;;;;;12.92;100.00;99599.25;6149223;23;19912;-89
2022/07/23 00:17:39;;;;;;;;;;;;;;;13.36;100.00;99622.53;6150595;23;19916;-93
2022/07/23 00:20:05;;;;;;;;;;;;;;;13.95;100.00;99666.13;6129965;22;19944;-89
2022/07/23 00:22:30;;;;;;;;;;;;;;;13.02;100.00;99696.16;6126834;23;20325;-88
2022/07/23 00:24:56;;;;;;;;;;;;;;;12.63;100.00;99716.00;6150549;23;19916;-88
2022/07/23 00:27:21;;;;;;;;;;;;;;;12.57;100.00;99708.34;6150482;23;19913;-88
2022/07/23 00:29:48;;;;;;;;;;;;;;;12.38;100.00;99711.97;6151315;23;19999;-87
2022/07/23 00:32:14;;;;;;;;;;;;;;;12.18;100.00;99724.44;6125419;23;19987;-86
2022/07/23 00:34:39;;;;;;;;;;;;;;;12.21;100.00;99722.59;6150802;23;19922;-86
2022/07/23 00:37:05;;;;;;;;;;;;;;;12.15;100.00;99695.38;6151643;23;19912;-86
2022/07/23 00:39:30;;;;;;;;;;;;;;;11.97;100.00;99669.78;6126353;23;20316;-88
2022/07/23 03:19:00;;;;;;;;;;;;;;;12.30;100.00;99566.25;6279236;22;19934;-95
2022/07/23 03:21:25;;;;;;;;;;;;;;;12.27;100.00;99569.06;6282668;22;19923;-94
2022/07/23 03:23:50;;;;;;;;;;;;;;;12.37;100.00;99574.72;6285026;22;19911;-90
2022/07/23 03:26:16;;;;;;;;;;;;;;;12.44;100.00;99586.72;6285187;22;19965;-92
2022/07/23 03:28:52;;;;;;;;;;;;;;;12.39;100.00;99587.94;6309161;22;20215;-94
2022/07/23 03:31:17;;;;;;;;;;;;;;;12.32;100.00;99582.09;6282016;22;19930;-93
2022/07/23 03:33:42;;;;;;;;;;;;;;;12.51;100.00;99582.81;6280449;22;19934;-93
2022/07/23 03:36:08;;;;;;;;;;;;;;;12.39;100.00;99591.44;6282067;22;19918;-93
2022/07/23 03:38:35;;;;;;;;;;;;;;;12.37;100.00;99588.03;6281269;22;21251;-92
2022/07/23 03:41:01;;;;;;;;;;;;;;;12.48;100.00;99596.28;6282455;22;19911;-90
2022/07/23 03:43:26;;;;;;;;;;;;;;;12.50;100.00;99588.22;6281597;22;20291;-93
2022/07/23 03:45:51;;;;;;;;;;;;;;;12.39;100.00;99582.63;6282150;22;19934;-95
2022/07/23 03:48:17;;;;;;;;;;;;;;;12.43;100.00;99581.50;6284161;22;19914;-94
2022/07/23 03:50:42;;;;;;;;;;;;;;;12.51;100.00;99588.13;6313033;22;19918;-95
2022/07/23 03:53:07;;;;;;;;;;;;;;;12.41;100.00;99592.22;6310020;22;19953;-95
2022/07/23 03:55:32;;;;;;;;;;;;;;;12.41;100.00;99586.91;6311110;22;19964;-92
2022/07/23 03:57:57;;;;;;;;;;;;;;;12.52;100.00;99588.97;6309009;22;19915;-92
2022/07/23 04:00:23;;;;;;;;;;;;;;;12.47;100.00;99588.38;6308857;22;19997;-93
2022/07/23 04:02:48;;;;;;;;;;;;;;;12.40;100.00;99590.50;6306974;22;19919;-91
2022/07/23 04:05:13;;;;;;;;;;;;;;;12.61;100.00;99598.28;6309310;22;19911;-92
2022/07/23 04:07:40;;;;;;;;;;;;;;;12.58;100.00;99601.09;6309369;22;20274;-91
2022/07/23 04:10:05;;;;;;;;;;;;;;;12.40;100.00;99606.44;6281595;22;19914;-92
2022/07/23 04:12:30;;;;;;;;;;;;;;;12.66;100.00;99613.00;6281355;22;19918;-96
2022/07/23 04:14:56;;;;;;;;;;;;;;;12.58;100.00;99614.38;6282230;22;20315;-94
2022/07/23 04:17:21;;;;;;;;;;;;;;;12.49;100.00;99613.94;6306526;22;19911;-91
2022/07/23 04:19:46;;;;;;;;;;;;;;;12.65;100.00;99602.47;6281096;22;19967;-93
2022/07/23 04:22:11;;;;;;;;;;;;;;;12.70;100.00;99613.69;6280902;22;19914;-94
2022/07/23 04:24:37;;;;;;;;;;;;;;;12.58;100.00;99612.56;6281293;22;19942;-95
2022/07/23 04:27:02;;;;;;;;;;;;;;;12.65;100.00;99610.44;6308189;22;19933;-93
2022/07/23 04:29:28;;;;;;;;;;;;;;;12.68;100.00;99623.56;6280991;22;19973;-96
2022/07/23 04:31:53;;;;;;;;;;;;;;;12.50;100.00;99618.28;6279473;22;20394;-94
2022/07/23 04:34:18;;;;;;;;;;;;;;;12.60;100.00;99637.25;6303837;22;19911;-90
2022/07/23 04:36:44;;;;;;;;;;;;;;;12.63;100.00;99645.06;6308368;22;19915;-89
2022/07/23 04:39:09;;;;;;;;;;;;;;;12.63;100.00;99642.41;6281400;22;19918;-93
2022/07/23 04:41:34;;;;;;;;;;;;;;;12.60;100.00;99645.22;6281004;22;20001;-94
2022/07/23 04:44:00;;;;;;;;;;;;;;;12.72;100.00;99649.06;6280805;22;20273;-91
2022/07/23 07:52:10;;;;;;;;;;;;;;;12.65;100.00;99775.25;6187766;22;20005;-88
2022/07/23 07:54:35;;;;;;;;;;;;;;;12.76;100.00;99788.84;6307939;22;19919;-87
2022/07/23 07:57:01;;;;;;;;;;;;;;;12.58;100.00;99776.50;6307867;22;19980;-88
2022/07/23 07:59:28;;;;;;;;;;;;;;;12.53;100.00;99784.72;6307829;22;19911;-86
2022/07/23 08:01:53;;;;;;;;;;;;;;;12.68;100.00;99785.72;6308192;22;19911;-90
2022/07/23 08:04:21;;;;;;;;;;;;;;;12.71;100.00;99780.25;6280309;22;19959;-90
2022/07/23 08:06:47;;;;;;;;;;;;;;;12.58;100.00;99779.16;6278781;22;20015;-90
2022/07/23 08:09:12;;;;;;;;;;;;;;;12.47;100.00;99779.72;6307631;22;19986;-89
2022/07/23 08:11:37;;;;;;;;;;;;;;;12.75;100.00;99784.47;6307670;22;19940;-88
2022/07/23 08:14:03;;;;;;;;;;;;;;;12.61;100.00;99784.31;6280877;22;20271;-89
2022/07/23 08:16:28;;;;;;;;;;;;;;;12.51;100.00;99783.94;6307693;22;19915;-88
2022/07/23 08:18:53;;;;;;;;;;;;;;;12.65;100.00;99781.44;6307415;22;19911;-88
2022/07/23 08:21:21;;;;;;;;;;;;;;;12.64;100.00;99778.84;6278724;22;20238;-86
2022/07/23 08:23:46;;;;;;;;;;;;;;;12.60;100.00;99777.28;6307566;22;19917;-89
2022/07/23 08:26:21;;;;;;;;;;;;;;;;;;;;;
2022/07/23 08:28:47;;;;;;;;;;;;;;;12.67;100.00;99773.38;6308662;22;19993;-90
2022/07/23 08:31:16;;;;;;;;;;;;;;;12.76;100.00;99778.19;6280034;22;19953;-88
2022/07/23 08:33:41;;;;;;;;;;;;;;;12.65;100.00;99772.56;6280070;22;19990;-89
2022/07/23 08:36:07;;;;;;;;;;;;;;;12.63;100.00;99777.97;6306121;22;19946;-89
2022/07/23 08:38:33;;;;;;;;;;;;;;;12.69;100.00;99782.13;6307449;22;19952;-88
2022/07/23 08:40:58;;;;;;;;;;;;;;;12.75;100.00;99780.94;6307556;22;19918;-87
2022/07/23 08:43:24;;;;;;;;;;;;;;;12.65;100.00;99781.44;6279836;22;19986;-89
2022/07/23 08:45:51;;;;;;;;;;;;;;;12.78;100.00;99779.00;6307267;22;20248;-90
2022/07/23 08:48:20;;;;;;;;;;;;;;;12.75;100.00;99787.13;6306965;22;19911;-88
2022/07/23 08:50:47;;;;;;;;;;;;;;;12.66;100.00;99783.13;6278989;22;19957;-88
2022/07/23 08:53:12;;;;;;;;;;;;;;;12.61;100.00;99785.19;6306894;22;20237;-88
2022/07/23 08:55:38;;;;;;;;;;;;;;;12.77;100.00;99785.25;6307171;22;19989;-88
2022/07/23 08:58:06;;;;;;;;;;;;;;;12.75;100.00;99784.47;6307330;22;20235;-89
2022/07/23 09:00:34;;;;;;;;;;;;;;;12.66;100.00;99787.59;6307130;22;19915;-88
2022/07/23 09:02:59;;;;;;;;;;;;;;;12.62;100.00;99780.72;6307264;22;19913;-86
2022/07/23 09:05:25;;;;;;;;;;;;;;;12.73;100.00;99789.00;6307318;22;19915;-86
2022/07/23 09:08:22;;;;;;;;;;;;;;;12.65;100.00;99780.56;6305675;22;20334;-84
2022/07/23 09:10:48;;;;;;;;;;;;;;;12.61;100.00;99781.66;6212902;22;19914;-85
2022/07/23 09:13:28;;;;;;;;;;;;;;;12.60;100.00;99783.44;6279438;22;19911;-85
2022/07/23 09:16:01;;;;;;;;;;;;;;;12.70;100.00;99789.16;6307076;22;19948;-86
2022/07/23 09:18:31;;;;;;;;;;;;;;;12.80;100.00;99784.25;6279752;22;20242;-87
2022/07/23 09:21:08;;;;;;;;;;;;;;;12.63;100.00;99780.63;6278242;22;20216;-86
2022/07/23 09:23:42;;;;;;;;;;;;;;;12.65;100.00;99780.56;6306726;22;19915;-85
2022/07/23 09:26:19;;;;;;;;;;;;;;;12.89;100.00;99783.72;6279860;22;19911;-86
2022/07/23 09:28:53;;;;;;;;;;;;;;;12.76;100.00;99777.34;6306986;22;19914;-85
2022/07/23 09:31:24;;;;;;;;;;;;;;;12.69;100.00;99782.13;6306692;22;19911;-86
2022/07/23 09:33:49;;;;;;;;;;;;;;;12.74;100.00;99780.09;6306982;22;19994;-86
2022/07/23 09:36:27;;;;;;;;;;;;;;;12.93;100.00;99769.34;6304993;22;19946;-88
2022/07/23 09:38:52;;;;;;;;;;;;;;;12.80;100.00;99774.44;6307337;22;19938;-86
2022/07/23 09:41:20;;;;;;;;;;;;;;;12.74;100.00;99782.75;6306792;22;19964;-87
2022/07/23 09:43:45;;;;;;;;;;;;;;;12.87;100.00;99774.97;6307266;22;19945;-89
2022/07/23 09:46:18;;;;;;;;;;;;;;;12.83;100.00;99782.28;6306667;22;19911;-88
2022/07/23 09:48:43;;;;;;;;;;;;;;;12.81;100.00;99785.94;6306527;22;19911;-89
2022/07/23 09:51:08;;;;;;;;;;;;;;;12.99;100.00;99781.47;6305087;22;20344;-85
2022/07/23 09:53:34;;;;;;;;;;;;;;;12.96;100.00;99785.16;6306486;22;19927;-86
2022/07/23 09:56:00;;;;;;;;;;;;;;;12.90;100.00;99788.97;6306724;22;19911;-88
2022/07/23 09:58:26;;;;;;;;;;;;;;;13.08;100.00;99786.28;6306513;22;20361;-90
2022/07/23 10:00:55;;;;;;;;;;;;;;;12.99;100.00;99789.47;6306543;22;19917;-89
2022/07/23 10:03:21;;;;;;;;;;;;;;;12.92;100.00;99788.88;6279090;22;19911;-88
2022/07/23 10:05:46;;;;;;;;;;;;;;;13.03;100.00;99793.66;6278670;22;19993;-89
2022/07/23 10:08:12;;;;;;;;;;;;;;;13.03;100.00;99798.97;6278841;22;19994;-90
2022/07/23 10:10:40;;;;;;;;;;;;;;;12.95;100.00;99803.84;6306870;22;19911;-87
2022/07/23 10:15:39;;;;;;;;;;;;;;;13.04;100.00;99798.03;6316699;22;19985;-90
2022/07/23 10:18:04;;;;;;;;;;;;;;;12.98;100.00;99801.03;6279158;22;19915;-87
2022/07/23 10:20:30;;;;;;;;;;;;;;;12.96;100.00;99800.25;6306427;22;19982;-88
2022/07/23 10:23:14;;;;;;;;;;;;;;;13.05;100.00;99800.63;6304945;22;19917;-87
2022/07/23 10:25:57;;;;;;;;;;;;;;;12.95;100.00;99804.69;6306409;22;19911;-88
2022/07/23 10:28:41;;;;;;;;;;;;;;;13.02;100.00;99800.78;6279204;22;20154;-88
2022/07/23 10:31:06;;;;;;;;;;;;;;;13.00;100.00;99801.78;6306783;22;19911;-90
2022/07/23 10:33:53;;;;;;;;;;;;;;;12.95;100.00;99798.53;6279248;22;20313;-86
2022/07/23 10:36:36;;;;;;;;;;;;;;;12.99;100.00;99800.94;6304784;22;19986;-89
2022/07/23 10:39:08;;;;;;;;;;;;;;;12.93;100.00;99795.94;6306807;22;19968;-85
2022/07/23 10:41:36;;;;;;;;;;;;;;;12.95;100.00;99794.06;6306285;22;19921;-89
2022/07/23 10:44:11;;;;;;;;;;;;;;;13.04;100.00;99795.38;6306438;22;19918;-88
2022/07/23 10:49:33;;;;;;;;;;;;;;;12.89;100.00;99795.25;6306311;22;19914;-89
2022/07/23 10:52:14;;;;;;;;;;;;;;;13.02;100.00;99787.47;6277844;22;19915;-85
2022/07/23 10:54:59;;;;;;;;;;;;;;;13.04;100.00;99790.91;6306762;22;19961;-86
2022/07/23 10:57:25;;;;;;;;;;;;;;;13.03;100.00;99788.34;6303472;22;20231;-89
2022/07/23 11:00:00;;;;;;;;;;;;;;;13.05;100.00;99789.09;6280648;22;19939;-86
2022/07/23 11:02:27;;;;;;;;;;;;;;;13.14;100.00;99793.09;6308256;22;19967;-89
2022/07/23 11:04:53;;;;;;;;;;;;;;;13.00;100.00;99786.72;6308348;22;19915;-90
2022/07/23 11:07:18;;;;;;;;;;;;;;;13.04;100.00;99790.91;6280007;22;19933;-86
2022/07/23 11:09:46;;;;;;;;;;;;;;;13.24;100.00;99787.19;6308128;22;19911;-90
2022/07/23 11:12:29;;;;;;;;;;;;;;;13.08;100.00;99795.16;6308684;22;19911;-88
2022/07/23 11:15:05;;;;;;;;;;;;;;;13.01;100.00;99792.88;6281253;22;19911;-86
2022/07/23 11:17:35;;;;;;;;;;;;;;;13.13;100.00;99786.91;6308873;22;19921;-91
2022/07/23 11:20:09;;;;;;;;;;;;;;;13.13;100.00;99788.69;6308353;22;19907;-90
2022/07/23 11:22:34;;;;;;;;;;;;;;;13.03;100.00;99780.34;6306484;22;19915;-88
2022/07/23 11:25:00;;;;;;;;;;;;;;;13.08;100.00;99778.31;6308236;22;19953;-89
2022/07/23 11:27:36;;;;;;;;;;;;;;;13.06;100.00;99780.19;6280864;22;19911;-89
2022/07/23 11:30:02;;;;;;;;;;;;;;;13.06;100.00;99782.84;6308175;22;20001;-87
2022/07/23 11:32:33;;;;;;;;;;;;;;;13.14;100.00;99796.59;6308110;22;19910;-89
2022/07/23 11:34:59;;;;;;;;;;;;;;;13.13;100.00;99786.91;6280501;22;19907;-89
2022/07/23 11:37:44;;;;;;;;;;;;;;;13.06;100.00;99790.84;6279332;22;19997;-90
2022/07/23 11:40:11;;;;;;;;;;;;;;;13.07;100.00;99784.59;6308080;22;20302;-88
2022/07/23 11:42:38;;;;;;;;;;;;;;;13.19;100.00;99781.25;6307921;22;20287;-89
2022/07/23 11:45:04;;;;;;;;;;;;;;;13.16;100.00;99781.44;6308181;22;20334;-88
2022/07/23 11:47:32;;;;;;;;;;;;;;;13.07;100.00;99782.78;6307537;22;19907;-88
2022/07/23 11:49:58;;;;;;;;;;;;;;;13.16;100.00;99776.13;6307901;22;19918;-90
2022/07/23 11:52:24;;;;;;;;;;;;;;;13.14;100.00;99777.97;6306057;22;19915;-87
2022/07/23 11:55:00;;;;;;;;;;;;;;;13.05;100.00;99778.47;6280568;22;19976;-85
2022/07/23 11:57:48;;;;;;;;;;;;;;;13.16;100.00;99770.78;6307870;22;20357;-87
2022/07/23 12:00:14;;;;;;;;;;;;;;;13.34;100.00;99771.63;6307102;22;20319;-85
2022/07/23 12:02:51;;;;;;;;;;;;;;;13.10;100.00;99765.81;6307748;22;19938;-86
2022/07/23 12:05:47;;;;;;;;;;;;;;;13.04;100.00;99780.28;6308193;22;19922;-88
2022/07/23 12:08:30;;;;;;;;;;;;;;;;;;;;;
2022/07/23 12:11:21;;;;;;;;;;;;;;;13.29;100.00;99773.66;6307232;22;20313;-89
2022/07/23 12:13:55;;;;;;;;;;;;;;;13.16;100.00;99769.91;6307502;22;20275;-85
2022/07/23 12:16:20;;;;;;;;;;;;;;;13.09;100.00;99769.38;6307605;22;19954;-85
2022/07/23 12:18:48;;;;;;;;;;;;;;;13.22;100.00;99769.59;6307368;22;19919;-86
2022/07/23 12:21:14;;;;;;;;;;;;;;;13.17;100.00;99772.50;6278829;22;20040;-88
2022/07/23 12:23:41;;;;;;;;;;;;;;;13.11;100.00;99772.81;6307378;22;19942;-88
2022/07/23 12:26:13;;;;;;;;;;;;;;;13.17;100.00;99769.84;6280369;22;19993;-87
2022/07/23 12:28:39;;;;;;;;;;;;;;;13.31;100.00;99762.94;6280261;22;19930;-86
2022/07/23 12:31:05;;;;;;;;;;;;;;;13.16;100.00;99764.59;6307526;22;19915;-88
2022/07/23 12:33:35;;;;;;;;;;;;;;;13.16;100.00;99762.81;6307225;22;19911;-87
2022/07/23 12:36:03;;;;;;;;;;;;;;;13.33;100.00;99761.06;6305850;22;20353;-88
2022/07/23 12:38:36;;;;;;;;;;;;;;;13.21;100.00;99762.53;6307730;22;19957;-89
2022/07/23 12:41:01;;;;;;;;;;;;;;;13.15;100.00;99769.06;6279960;22;19980;-89
2022/07/23 12:43:28;;;;;;;;;;;;;;;13.34;100.00;99765.41;6307458;22;19945;-90
2022/07/23 12:46:05;;;;;;;;;;;;;;;13.27;100.00;99772.84;6307263;22;19911;-89
2022/07/23 12:48:36;;;;;;;;;;;;;;;13.25;100.00;99769.44;6307288;22;20369;-86
2022/07/23 12:51:04;;;;;;;;;;;;;;;13.37;100.00;99783.88;6305602;22;19953;-86
2022/07/23 12:53:32;;;;;;;;;;;;;;;13.29;100.00;99776.31;6307088;22;19922;-88
2022/07/23 12:56:05;;;;;;;;;;;;;;;13.22;100.00;99769.59;6279918;22;19925;-88
2022/07/23 12:59:00;;;;;;;;;;;;;;;13.32;100.00;99769.94;6279701;22;19981;-88
2022/07/23 13:01:27;;;;;;;;;;;;;;;13.30;100.00;99771.84;6307373;22;19980;-88
2022/07/23 13:04:07;;;;;;;;;;;;;;;13.16;100.00;99773.47;6307187;22;20228;-88
2022/07/23 13:06:35;;;;;;;;;;;;;;;13.31;100.00;99777.06;6305563;22;19915;-90
2022/07/23 13:09:01;;;;;;;;;;;;;;;13.25;100.00;99772.94;6306899;22;20279;-87
2022/07/23 13:11:26;;;;;;;;;;;;;;;13.22;100.00;99770.44;6306983;22;19918;-86
2022/07/23 13:13:52;;;;;;;;;;;;;;;13.37;100.00;99774.13;6307031;22;19923;-86
2022/07/23 13:16:20;;;;;;;;;;;;;;;13.32;100.00;99780.59;6307454;22;20323;-88
2022/07/23 13:18:45;;;;;;;;;;;;;;;13.27;100.00;99775.50;6306988;22;19969;-90
2022/07/23 13:21:11;;;;;;;;;;;;;;;13.36;100.00;99771.53;6305295;22;20225;-88
2022/07/23 13:23:36;;;;;;;;;;;;;;;13.37;100.00;99779.44;6306769;22;19911;-87
2022/07/23 13:26:01;;;;;;;;;;;;;;;13.20;100.00;99775.00;6306954;22;19911;-87
2022/07/23 13:28:27;;;;;;;;;;;;;;;13.35;100.00;99775.97;6307107;22;19910;-88
2022/07/23 13:30:52;;;;;;;;;;;;;;;13.32;100.00;99770.78;6306874;22;20220;-90
2022/07/23 13:33:18;;;;;;;;;;;;;;;13.27;100.00;99759.56;6306889;22;19960;-89
2022/07/23 13:35:56;;;;;;;;;;;;;;;13.39;100.00;99776.69;6306617;22;19911;-89
2022/07/23 13:38:22;;;;;;;;;;;;;;;13.36;100.00;99771.53;6279554;22;19965;-86
2022/07/23 13:40:48;;;;;;;;;;;;;;;13.41;100.00;99770.31;6306701;22;19911;-87
2022/07/23 13:43:16;;;;;;;;;;;;;;;13.33;100.00;99769.03;6306827;22;19990;-88
2022/07/23 13:45:42;;;;;;;;;;;;;;;13.38;100.00;99765.16;6305319;22;19993;-90
2022/07/23 13:48:08;;;;;;;;;;;;;;;13.23;100.00;99766.00;6278655;22;19938;-88
2022/07/23 13:50:34;;;;;;;;;;;;;;;13.19;100.00;99764.44;6306924;22;19915;-90
2022/07/23 13:53:05;;;;;;;;;;;;;;;13.34;100.00;99760.97;6304944;22;20385;-86
2022/07/23 13:55:33;;;;;;;;;;;;;;;13.39;100.00;99761.59;6279664;22;19918;-87
2022/07/23 13:57:59;;;;;;;;;;;;;;;13.25;100.00;99764.94;6306596;22;20362;-89
2022/07/23 14:00:28;;;;;;;;;;;;;;;13.31;100.00;99769.09;6306646;22;19953;-89
2022/07/23 14:02:53;;;;;;;;;;;;;;;13.29;100.00;99771.00;6306589;22;19955;-89
2022/07/23 14:05:18;;;;;;;;;;;;;;;13.27;100.00;99763.09;6306388;22;19986;-89
2022/07/23 14:07:44;;;;;;;;;;;;;;;13.24;100.00;99773.00;6277501;22;19921;-88
2022/07/23 14:10:14;;;;;;;;;;;;;;;13.26;100.00;99764.03;6307126;22;20296;-89
2022/07/23 14:12:40;;;;;;;;;;;;;;;13.27;100.00;99767.53;6306606;22;19964;-86
2022/07/23 14:15:06;;;;;;;;;;;;;;;13.17;100.00;99769.84;6306907;22;20269;-88
2022/07/23 14:17:32;;;;;;;;;;;;;;;13.21;100.00;99766.09;6279584;22;20269;-89
2022/07/23 14:20:00;;;;;;;;;;;;;;;13.33;100.00;99769.03;6306144;22;19982;-90
2022/07/23 14:22:31;;;;;;;;;;;;;;;13.20;100.00;99768.81;6304860;22;19910;-89
2022/07/23 14:24:58;;;;;;;;;;;;;;;13.11;100.00;99764.00;6278910;22;19915;-89
2022/07/23 14:27:27;;;;;;;;;;;;;;;13.24;100.00;99771.25;6306954;22;19914;-88
2022/07/23 14:29:52;;;;;;;;;;;;;;;13.22;100.00;99767.78;6306689;22;19926;-89
2022/07/23 14:32:18;;;;;;;;;;;;;;;13.14;100.00;99771.81;6279261;22;19915;-89
2022/07/23 14:34:43;;;;;;;;;;;;;;;13.08;100.00;99768.53;6306224;22;19911;-85
2022/07/23 14:37:09;;;;;;;;;;;;;;;13.19;100.00;99767.09;6304661;22;20283;-86
2022/07/23 14:39:34;;;;;;;;;;;;;;;13.20;100.00;99756.38;6306541;22;20000;-86
2022/07/23 14:42:00;;;;;;;;;;;;;;;13.14;100.00;99759.34;6306391;22;19989;-86
2022/07/23 14:44:25;;;;;;;;;;;;;;;13.15;100.00;99769.06;6306567;22;19915;-85
2022/07/23 14:46:50;;;;;;;;;;;;;;;13.18;100.00;99763.59;6278758;22;19973;-86
2022/07/23 14:49:15;;;;;;;;;;;;;;;13.14;100.00;99753.19;6306102;22;19994;-89
2022/07/23 14:51:42;;;;;;;;;;;;;;;13.12;100.00;99757.75;6304858;22;19938;-86
2022/07/23 14:54:07;;;;;;;;;;;;;;;13.23;100.00;99761.53;6306287;22;19976;-85
2022/07/23 14:56:35;;;;;;;;;;;;;;;13.22;100.00;99756.28;6306449;22;20295;-85
2022/07/23 14:59:06;;;;;;;;;;;;;;;13.15;100.00;99752.25;6306305;22;19918;-85
2022/07/23 15:01:31;;;;;;;;;;;;;;;13.16;100.00;99744.19;6278765;22;19918;-86
2022/07/23 15:03:57;;;;;;;;;;;;;;;13.22;100.00;99749.16;6248004;22;19924;-90
2022/07/23 15:06:22;;;;;;;;;;;;;;;13.20;100.00;99745.72;6121107;23;19968;-87
2022/07/23 15:08:47;;;;;;;;;;;;;;;13.17;100.00;99745.03;6148972;23;19917;-87
2022/07/23 15:11:15;;;;;;;;;;;;;;;13.24;100.00;99739.31;6148882;23;19912;-90
2022/07/23 15:13:43;;;;;;;;;;;;;;;13.23;100.00;99740.25;6148961;23;19913;-86
2022/07/23 15:16:09;;;;;;;;;;;;;;;13.19;100.00;99744.00;6148042;23;20340;-87
2022/07/23 15:18:37;;;;;;;;;;;;;;;13.23;100.00;99740.25;6149395;23;20105;-85
2022/07/23 15:21:02;;;;;;;;;;;;;;;13.29;100.00;99743.50;6147777;23;19996;-86
2022/07/23 15:23:28;;;;;;;;;;;;;;;13.23;100.00;99734.06;6124014;23;20325;-89
2022/07/23 15:25:56;;;;;;;;;;;;;;;13.18;100.00;99742.28;6150053;23;20236;-88
2022/07/23 15:28:22;;;;;;;;;;;;;;;13.20;100.00;99739.56;6124405;22;19912;-89
2022/07/23 15:30:53;;;;;;;;;;;;;;;13.27;100.00;99747.13;6123806;23;20316;-88
2022/07/23 15:33:19;;;;;;;;;;;;;;;13.19;100.00;99749.31;6149660;23;20301;-88
2022/07/23 15:35:44;;;;;;;;;;;;;;;13.18;100.00;99744.09;6149970;23;19963;-87
2022/07/23 15:38:10;;;;;;;;;;;;;;;13.15;100.00;99747.78;6122599;23;20311;-87
2022/07/23 15:40:45;;;;;;;;;;;;;;;13.19;100.00;99744.00;6123824;23;19920;-89
2022/07/23 15:43:10;;;;;;;;;;;;;;;13.19;100.00;99746.66;6149358;23;19921;-86
2022/07/23 15:45:36;;;;;;;;;;;;;;;13.13;100.00;99741.69;6124975;22;19944;-88
2022/07/23 15:48:04;;;;;;;;;;;;;;;13.22;100.00;99740.31;6151135;23;19917;-88
2022/07/23 15:50:29;;;;;;;;;;;;;;;13.22;100.00;99740.31;6151664;22;19936;-87
2022/07/23 15:52:54;;;;;;;;;;;;;;;13.17;100.00;99747.69;6123686;23;20320;-87
2022/07/23 15:55:19;;;;;;;;;;;;;;;13.09;100.00;99738.31;6151284;23;19940;-90
2022/07/23 15:57:47;;;;;;;;;;;;;;;13.22;100.00;99741.16;6151057;23;20326;-88
2022/07/23 16:00:13;;;;;;;;;;;;;;;13.21;100.00;99734.16;6125788;23;19912;-89
2022/07/23 16:02:38;;;;;;;;;;;;;;;13.16;100.00;99738.88;6151311;23;20281;-86
2022/07/23 16:07:50;;;;;;;;;;;;;;;13.27;100.00;99731.16;6149470;23;19927;-86
2022/07/23 16:10:17;;;;;;;;;;;;;;;13.24;100.00;99731.31;6124481;23;19940;-85
2022/07/23 16:12:43;;;;;;;;;;;;;;;13.23;100.00;99732.25;6150334;23;19971;-84
2022/07/23 16:15:08;;;;;;;;;;;;;;;16.10;93.31;99725.69;6151019;23;19913;-84
2022/07/23 16:17:34;;;;;;;;;;;;;;;14.19;100.00;99728.72;6150929;23;20222;-86
2022/07/23 16:19:59;;;;;;;;;;;;;;;13.69;100.00;99734.22;6150870;23;19944;-85
2022/07/23 16:22:25;;;;;;;;;;;;;;;13.44;100.00;99732.06;6149729;23;20404;-88
2022/07/23 16:24:50;;;;;;;;;;;;;;;13.38;100.00;99727.06;6124921;23;19956;-88
2022/07/23 16:27:15;;;;;;;;;;;;;;;13.43;100.00;99723.22;6150806;23;19995;-87
2022/07/23 16:29:41;;;;;;;;;;;;;;;13.35;100.00;99725.41;6151230;23;19912;-88
2022/07/23 16:32:06;;;;;;;;;;;;;;;13.26;100.00;99729.44;6150640;23;19921;-85
2022/07/23 16:34:31;;;;;;;;;;;;;;;13.42;100.00;99741.94;6151005;23;19936;-87
2022/07/23 16:36:57;;;;;;;;;;;;;;;13.30;100.00;99729.25;6149084;22;19917;-87
2022/07/23 16:39:22;;;;;;;;;;;;;;;13.23;100.00;99728.75;6150821;23;19955;-87
2022/07/23 16:41:47;;;;;;;;;;;;;;;13.22;100.00;99735.84;6150818;23;19917;-87
2022/07/23 16:44:13;;;;;;;;;;;;;;;13.34;100.00;99737.03;6151251;23;19951;-87
2022/07/23 16:46:38;;;;;;;;;;;;;;;13.27;100.00;99736.47;6150373;23;19913;-87
2022/07/23 16:49:04;;;;;;;;;;;;;;;13.17;100.00;99743.22;6150554;23;20347;-86
2022/07/23 16:51:30;;;;;;;;;;;;;;;13.26;100.00;99740.06;6148494;23;20352;-87
2022/07/23 16:53:55;;;;;;;;;;;;;;;13.29;100.00;99740.84;6150430;23;19928;-88
2022/07/23 16:56:21;;;;;;;;;;;;;;;13.16;100.00;99733.56;6150067;23;19912;-86
2022/07/23 16:58:49;;;;;;;;;;;;;;;13.26;100.00;99737.41;6150206;23;19999;-86
2022/07/23 17:01:31;;;;;;;;;;;;;;;13.28;100.00;99737.34;6150034;23;19923;-87
2022/07/23 17:03:57;;;;;;;;;;;;;;;13.24;100.00;99736.66;6124357;22;20221;-88
2022/07/23 17:06:22;;;;;;;;;;;;;;;13.23;100.00;99739.38;6148134;22;19939;-86
2022/07/23 17:08:48;;;;;;;;;;;;;;;13.40;100.00;99735.81;6125045;23;20294;-85
2022/07/23 17:11:13;;;;;;;;;;;;;;;13.28;100.00;99737.34;6150254;23;20336;-84
2022/07/23 17:13:41;;;;;;;;;;;;;;;13.26;100.00;99736.56;6126158;23;19919;-84
2022/07/23 17:16:06;;;;;;;;;;;;;;;13.35;100.00;99733.41;6124479;23;20017;-86
2022/07/23 17:18:32;;;;;;;;;;;;;;;13.32;100.00;99732.69;6150954;23;20324;-85
2022/07/23 17:20:57;;;;;;;;;;;;;;;13.29;100.00;99743.50;6123455;23;20294;-84
2022/07/23 17:23:25;;;;;;;;;;;;;;;13.45;100.00;99739.09;6122800;23;19920;-84
2022/07/23 17:25:51;;;;;;;;;;;;;;;13.44;100.00;99745.38;6150055;22;19913;-82
2022/07/23 17:28:17;;;;;;;;;;;;;;;13.40;100.00;99747.34;6149333;23;20345;-85
2022/07/23 17:30:42;;;;;;;;;;;;;;;13.48;100.00;99738.06;6124039;23;19955;-85
2022/07/23 17:33:07;;;;;;;;;;;;;;;13.35;100.00;99741.38;6149589;23;19932;-84
2022/07/23 17:35:32;;;;;;;;;;;;;;;13.33;100.00;99745.09;6150482;23;19958;-85
2022/07/23 17:37:58;;;;;;;;;;;;;;;13.49;100.00;99745.09;6123372;23;19917;-84
2022/07/23 17:40:24;;;;;;;;;;;;;;;13.42;100.00;99739.28;6150729;23;19992;-83
2022/07/23 17:42:49;;;;;;;;;;;;;;;13.43;100.00;99738.31;6151160;23;20324;-84
2022/07/23 17:45:14;;;;;;;;;;;;;;;13.55;100.00;99740.28;6123807;23;20328;-84
2022/07/23 17:47:43;;;;;;;;;;;;;;;13.44;100.00;99734.72;6150184;23;20050;-86
2022/07/23 17:50:09;;;;;;;;;;;;;;;13.39;100.00;99728.78;6150273;23;19927;-86
2022/07/23 17:52:42;;;;;;;;;;;;;;;13.55;100.00;99739.44;6122679;23;19913;-86
2022/07/23 17:55:08;;;;;;;;;;;;;;;13.49;100.00;99735.31;6150395;23;19919;-86
2022/07/23 17:57:59;;;;;;;;;;;;;;;14.48;100.00;99732.31;6124684;23;19921;-86
2022/07/23 18:00:24;;;;;;;;;;;;;;;13.85;100.00;99735.97;6148895;23;19919;-85
2022/07/23 18:02:50;;;;;;;;;;;;;;;13.31;100.00;99747.81;6124377;23;19935;-84
2022/07/23 18:05:15;;;;;;;;;;;;;;;13.03;100.00;99741.31;6124063;22;20431;-85
2022/07/23 18:07:40;;;;;;;;;;;;;;;13.00;100.00;99748.59;6148446;23;19944;-86
2022/07/23 18:10:06;;;;;;;;;;;;;;;12.97;100.00;99748.75;6149973;23;19912;-83
2022/07/23 18:12:32;;;;;;;;;;;;;;;12.94;100.00;99743.59;6124432;23;19913;-82
2022/07/23 18:14:57;;;;;;;;;;;;;;;13.00;100.00;99749.47;6150148;23;19912;-84
2022/07/23 18:17:22;;;;;;;;;;;;;;;12.94;100.00;99744.47;6150138;23;20000;-85
2022/07/23 18:19:48;;;;;;;;;;;;;;;12.86;100.00;99744.00;6150332;23;19909;-84
2022/07/23 18:22:13;;;;;;;;;;;;;;;12.90;100.00;99751.75;6148862;23;19912;-85
2022/07/23 18:24:38;;;;;;;;;;;;;;;12.79;100.00;99740.81;6124352;23;20286;-83
2022/07/23 18:27:04;;;;;;;;;;;;;;;12.88;100.00;99755.44;6150505;23;20321;-84
2022/07/23 18:29:30;;;;;;;;;;;;;;;12.90;100.00;99757.06;6124204;23;19913;-84
2022/07/23 18:31:55;;;;;;;;;;;;;;;12.86;100.00;99760.84;6149909;23;19921;-85